createdAt,value
2018-09-03T00:01:33.367Z,4.33
2018-09-03T00:04:01.529Z,3.37
2018-09-03T00:06:29.406Z,2.40
2018-09-03T00:08:57.376Z,4.43
2018-09-03T00:11:25.140Z,3.33
2018-09-03T00:13:53.202Z,3.27
2018-09-03T00:16:20.592Z,4.05
2018-09-03T00:18:47.940Z,4.47
2018-09-03T00:21:15.591Z,4.57
2018-09-03T00:23:42.949Z,4.50
2018-09-03T00:26:10.393Z,4.67
2018-09-03T00:28:37.758Z,4.63
2018-09-03T00:31:12.081Z,5.03
2018-09-03T00:33:45.754Z,7.60
2018-09-03T00:37:19.695Z,3.90
2018-09-03T00:39:52.734Z,2.80
2018-09-03T00:42:26.709Z,5.42
2018-09-03T00:45:00.744Z,3.52
2018-09-03T00:47:28.131Z,4.37
2018-09-03T00:49:55.585Z,3.92
2018-09-03T00:52:22.988Z,3.30
2018-09-03T00:54:50.405Z,4.33
2018-09-03T00:57:18.393Z,5.67
2018-09-03T00:59:45.739Z,4.70
2018-09-03T01:02:14.284Z,5.62
2018-09-03T01:04:42.517Z,3.50
2018-09-03T01:07:10.226Z,4.37
2018-09-03T01:09:37.597Z,4.90
2018-09-03T01:12:05.007Z,4.03
2018-09-03T01:14:32.369Z,5.58
2018-09-03T01:17:00.805Z,5.42
2018-09-03T01:19:28.185Z,4.63
2018-09-03T01:21:55.614Z,4.47
2018-09-03T01:24:23.024Z,3.58
2018-09-03T01:26:50.842Z,3.43
2018-09-03T01:29:18.598Z,3.70
2018-09-03T01:31:45.946Z,6.07
2018-09-03T01:34:14.347Z,4.90
2018-09-03T01:36:41.727Z,6.30
2018-09-03T01:39:09.121Z,5.47
2018-09-03T01:41:37.418Z,4.08
2018-09-03T01:44:05.199Z,5.67
2018-09-03T01:46:32.561Z,7.07
2018-09-03T01:48:59.917Z,6.57
2018-09-03T01:51:27.294Z,5.40
2018-09-03T01:53:54.658Z,7.20
2018-09-03T01:56:22.587Z,4.30
2018-09-03T01:58:50.780Z,5.97
2018-09-03T02:01:18.483Z,5.62
2018-09-03T02:03:47.132Z,5.10
2018-09-03T02:06:14.502Z,6.30
2018-09-03T02:08:41.918Z,4.23
2018-09-03T02:11:09.309Z,5.97
2018-09-03T02:13:36.754Z,4.03
2018-09-03T02:16:04.533Z,7.12
2018-09-03T02:18:31.905Z,9.03
2018-09-03T02:20:59.337Z,4.63
2018-09-03T02:23:26.718Z,5.60
2018-09-03T02:25:55.010Z,4.57
2018-09-03T02:28:22.382Z,6.73
2018-09-03T02:30:49.716Z,6.97
2018-09-03T02:33:17.789Z,6.23
2018-09-03T02:35:45.189Z,6.30
2018-09-03T02:38:12.559Z,4.67
2018-09-03T02:40:39.954Z,7.53
2018-09-03T02:43:07.941Z,8.40
2018-09-03T02:45:35.681Z,7.70
2018-09-03T02:48:04.155Z,3.52
2018-09-03T02:50:32.443Z,6.80
2018-09-03T02:53:01.012Z,7.33
2018-09-03T02:55:29.874Z,5.12
2018-09-03T02:57:57.221Z,8.07
2018-09-03T03:00:26.523Z,5.80
2018-09-03T03:02:55.606Z,5.47
2018-09-03T03:05:22.998Z,5.87
2018-09-03T03:07:50.404Z,4.60
2018-09-03T03:10:18.019Z,9.50
2018-09-03T03:12:45.378Z,4.00
2018-09-03T03:15:12.908Z,8.13
2018-09-03T03:17:40.309Z,7.23
2018-09-03T03:20:07.707Z,4.78
2018-09-03T03:22:35.359Z,5.23
2018-09-03T03:25:03.336Z,7.42
2018-09-03T03:27:30.688Z,5.87
2018-09-03T03:29:58.086Z,4.43
2018-09-03T03:32:26.338Z,4.53
2018-09-03T03:34:54.617Z,6.63
2018-09-03T03:37:22.614Z,5.53
2018-09-03T03:39:50.778Z,5.55
2018-09-03T03:42:19.201Z,4.97
2018-09-03T03:44:47.145Z,5.07
2018-09-03T03:47:14.521Z,5.87
2018-09-03T03:49:41.931Z,9.27
2018-09-03T03:52:09.327Z,5.97
2018-09-03T03:54:37.100Z,4.30
2018-09-03T03:57:05.355Z,5.40
2018-09-03T03:59:32.731Z,6.00
2018-09-03T04:02:01.104Z,4.80
2018-09-03T04:04:29.049Z,5.30
2018-09-03T04:06:56.421Z,5.03
2018-09-03T04:09:23.848Z,6.37
2018-09-03T04:11:51.250Z,7.60
2018-09-03T04:14:18.637Z,7.40
2018-09-03T04:16:46.090Z,4.43
2018-09-03T04:19:14.148Z,4.87
2018-09-03T04:21:42.408Z,5.70
2018-09-03T04:24:09.762Z,6.25
2018-09-03T04:26:37.999Z,5.80
2018-09-03T04:29:06.337Z,6.43
2018-09-03T04:31:33.693Z,5.10
2018-09-03T04:34:01.954Z,7.62
2018-09-03T04:36:29.390Z,6.25
2018-09-03T04:38:56.767Z,5.63
2018-09-03T04:41:25.557Z,6.57
2018-09-03T04:43:53.300Z,5.77
2018-09-03T04:46:20.662Z,4.67
2018-09-03T04:48:48.122Z,5.90
2018-09-03T04:51:15.540Z,6.03
2018-09-03T04:53:43.194Z,8.68
2018-09-03T04:56:11.505Z,6.58
2018-09-03T04:58:38.895Z,7.72
2018-09-03T05:01:06.374Z,6.47
2018-09-03T05:03:34.450Z,6.20
2018-09-03T05:06:01.888Z,3.80
2018-09-03T05:08:29.248Z,5.73
2018-09-03T05:10:57.519Z,5.90
2018-09-03T05:13:25.765Z,7.00
2018-09-03T05:15:53.152Z,6.20
2018-09-03T05:18:21.338Z,5.97
2018-09-03T05:20:50.286Z,9.20
2018-09-03T05:23:17.734Z,5.37
2018-09-03T05:25:45.101Z,5.50
2018-09-03T05:28:13.050Z,9.45
2018-09-03T05:30:41.379Z,12.07
2018-09-03T05:33:09.270Z,12.47
2018-09-03T05:35:37.503Z,25.88
2018-09-03T05:38:05.034Z,16.00
2018-09-03T05:40:32.387Z,11.13
2018-09-03T05:43:00.452Z,15.13
2018-09-03T05:45:28.318Z,11.67
2018-09-03T05:47:56.098Z,11.83
2018-09-03T05:50:23.635Z,14.13
2018-09-03T05:52:50.842Z,12.03
2018-09-03T05:55:18.947Z,12.07
2018-09-03T05:57:46.318Z,13.30
2018-09-03T06:00:13.718Z,13.88
2018-09-03T06:02:42.061Z,10.55
2018-09-03T06:05:09.425Z,10.23
2018-09-03T06:07:38.807Z,9.87
2018-09-03T06:10:06.260Z,11.57
2018-09-03T06:12:34.091Z,11.03
2018-09-03T06:15:02.269Z,9.93
2018-09-03T06:17:29.635Z,10.97
2018-09-03T06:19:57.963Z,11.30
2018-09-03T06:22:25.342Z,8.77
2018-09-03T06:24:52.702Z,10.13
2018-09-03T06:27:20.107Z,14.03
2018-09-03T06:29:47.457Z,10.70
2018-09-03T06:32:14.926Z,12.60
2018-09-03T06:34:43.530Z,9.87
2018-09-03T06:37:10.914Z,11.88
2018-09-03T06:39:38.346Z,12.75
2018-09-03T06:42:07.130Z,12.30
2018-09-03T06:44:35.718Z,9.05
2018-09-03T06:47:03.129Z,9.83
2018-09-03T06:49:30.489Z,13.70
2018-09-03T06:51:57.886Z,13.37
2018-09-03T06:54:25.321Z,9.53
2018-09-03T06:56:53.157Z,12.85
2018-09-03T06:59:20.705Z,14.23
2018-09-03T07:01:48.826Z,14.03
2018-09-03T07:04:16.696Z,12.30
2018-09-03T07:06:44.976Z,13.22
2018-09-03T07:09:12.322Z,12.07
2018-09-03T07:11:40.254Z,14.10
2018-09-03T07:14:08.217Z,13.37
2018-09-03T07:16:36.209Z,9.73
2018-09-03T07:19:04.499Z,11.93
2018-09-03T07:21:31.978Z,11.03
2018-09-03T07:23:59.343Z,13.10
2018-09-03T07:26:26.774Z,11.23
2018-09-03T07:28:54.237Z,12.83
2018-09-03T07:31:22.621Z,13.67
2018-09-03T07:33:50.678Z,15.57
2018-09-03T07:36:18.747Z,14.43
2018-09-03T07:38:46.106Z,13.62
2018-09-03T07:41:13.475Z,14.50
2018-09-03T07:43:41.246Z,13.37
2018-09-03T07:46:08.593Z,12.00
2018-09-03T07:48:36.013Z,24.77
2018-09-03T07:51:03.419Z,15.13
2018-09-03T07:53:31.478Z,14.65
2018-09-03T07:55:59.649Z,13.27
2018-09-03T07:58:27.649Z,14.58
2018-09-03T08:00:55.970Z,12.47
2018-09-03T08:03:23.958Z,15.65
2018-09-03T08:05:51.550Z,12.37
2018-09-03T08:08:18.933Z,12.03
2018-09-03T08:10:46.922Z,12.43
2018-09-03T08:13:20.768Z,10.82
2018-09-03T08:15:48.117Z,16.52
2018-09-03T08:18:15.502Z,12.70
2018-09-03T08:20:43.438Z,13.65
2018-09-03T08:23:10.792Z,18.23
2018-09-03T08:25:38.157Z,14.73
2018-09-03T08:28:05.746Z,16.60
2018-09-03T08:30:33.114Z,16.65
2018-09-03T08:33:00.770Z,17.25
2018-09-03T08:35:28.841Z,12.63
2018-09-03T08:37:56.150Z,17.70
2018-09-03T08:40:23.531Z,16.83
2018-09-03T08:42:51.406Z,17.07
2018-09-03T08:45:19.435Z,16.43
2018-09-03T08:47:47.461Z,16.37
2018-09-03T08:50:15.449Z,17.80
2018-09-03T08:52:42.805Z,15.50
2018-09-03T08:55:10.189Z,15.43
2018-09-03T08:57:38.268Z,18.10
2018-09-03T09:00:06.143Z,19.03
2018-09-03T09:02:34.454Z,16.27
2018-09-03T09:05:02.158Z,14.57
2018-09-03T09:07:29.562Z,14.47
2018-09-03T09:09:57.609Z,13.55
2018-09-03T09:12:24.987Z,16.25
2018-09-03T09:14:52.337Z,17.42
2018-09-03T09:17:19.710Z,16.75
2018-09-03T09:19:47.082Z,17.73
2018-09-03T09:22:14.515Z,15.83
2018-09-03T09:24:42.158Z,15.13
2018-09-03T09:27:09.529Z,12.25
2018-09-03T09:29:36.895Z,13.60
2018-09-03T09:32:04.362Z,13.15
2018-09-03T09:34:32.874Z,13.70
2018-09-03T09:37:01.243Z,14.33
2018-09-03T09:39:28.605Z,11.83
2018-09-03T09:41:56.360Z,12.23
2018-09-03T09:44:24.476Z,14.53
2018-09-03T09:46:51.838Z,15.30
2018-09-03T09:49:20.234Z,13.05
2018-09-03T09:51:47.626Z,12.93
2018-09-03T09:54:15.592Z,13.18
2018-09-03T09:56:42.942Z,12.68
2018-09-03T09:59:10.662Z,10.90
2018-09-03T10:01:38.890Z,11.33
2018-09-03T10:04:06.941Z,13.03
2018-09-03T10:06:35.314Z,12.47
2018-09-03T10:09:04.413Z,12.53
2018-09-03T10:11:31.773Z,10.70
2018-09-03T10:13:59.146Z,14.15
2018-09-03T10:16:26.526Z,13.13
2018-09-03T10:18:53.966Z,12.20
2018-09-03T10:21:22.112Z,13.08
2018-09-03T10:23:49.482Z,12.00
2018-09-03T10:26:17.202Z,13.32
2018-09-03T10:28:44.674Z,13.60
2018-09-03T10:31:13.254Z,12.90
2018-09-03T10:33:41.375Z,11.53
2018-09-03T10:36:08.766Z,13.25
2018-09-03T10:38:36.151Z,12.80
2018-09-03T10:41:05.042Z,12.10
2018-09-03T10:43:33.243Z,11.93
2018-09-03T10:46:00.618Z,12.03
2018-09-03T10:48:29.582Z,13.55
2018-09-03T10:50:57.007Z,11.20
2018-09-03T10:53:24.406Z,13.28
2018-09-03T10:55:51.810Z,14.43
2018-09-03T10:58:19.170Z,10.95
2018-09-03T11:00:47.391Z,11.95
2018-09-03T11:03:15.336Z,13.45
2018-09-03T11:05:43.052Z,12.28
2018-09-03T11:08:10.434Z,13.22
2018-09-03T11:10:38.390Z,13.62
2018-09-03T11:13:05.786Z,12.75
2018-09-03T11:15:33.186Z,12.43
2018-09-03T11:18:01.342Z,12.28
2018-09-03T11:20:29.498Z,13.45
2018-09-03T11:22:57.306Z,14.38
2018-09-03T11:25:25.859Z,13.43
2018-09-03T11:27:54.017Z,14.90
2018-09-03T11:30:21.692Z,13.98
2018-09-03T11:32:56.529Z,14.85
2018-09-03T11:35:25.189Z,16.27
2018-09-03T11:37:52.549Z,14.93
2018-09-03T11:40:20.789Z,14.05
2018-09-03T11:42:49.101Z,16.37
2018-09-03T11:45:18.170Z,13.40
2018-09-03T11:47:45.985Z,15.00
2018-09-03T11:50:14.440Z,13.15
2018-09-03T11:52:41.818Z,13.75
2018-09-03T11:55:09.479Z,17.85
2018-09-03T11:57:36.999Z,13.08
2018-09-03T12:00:05.051Z,15.18
2018-09-03T12:02:33.124Z,15.20
2018-09-03T12:05:01.139Z,15.88
2018-09-03T12:07:28.547Z,14.63
2018-09-03T12:09:55.918Z,14.55
2018-09-03T12:12:23.323Z,14.35
2018-09-03T12:14:54.542Z,14.70
2018-09-03T12:17:21.954Z,13.28
2018-09-03T12:19:49.867Z,14.90
2018-09-03T12:22:17.249Z,15.88
2018-09-03T12:24:44.589Z,13.35
2018-09-03T12:27:12.491Z,15.05
2018-09-03T12:29:40.457Z,16.27
2018-09-03T12:32:07.876Z,13.53
2018-09-03T12:34:36.416Z,12.35
2018-09-03T12:37:04.680Z,16.52
2018-09-03T12:39:31.992Z,13.20
2018-09-03T12:42:00.138Z,16.00
2018-09-03T12:44:29.454Z,14.60
2018-09-03T12:46:56.834Z,14.93
2018-09-03T12:49:24.213Z,14.28
2018-09-03T12:51:51.615Z,15.32
2018-09-03T12:54:19.543Z,15.95
2018-09-03T12:56:46.918Z,15.38
2018-09-03T12:59:15.525Z,15.65
2018-09-03T13:01:44.226Z,13.40
2018-09-03T13:04:12.215Z,14.90
2018-09-03T13:06:40.452Z,14.43
2018-09-03T13:09:08.549Z,15.88
2018-09-03T13:11:37.315Z,15.08
2018-09-03T13:14:04.720Z,17.45
2018-09-03T13:16:32.090Z,14.55
2018-09-03T13:19:00.667Z,11.85
2018-09-03T13:21:28.617Z,13.68
2018-09-03T13:23:56.830Z,12.95
2018-09-03T13:26:24.209Z,15.48
2018-09-03T13:28:51.562Z,12.63
2018-09-03T13:31:18.939Z,13.25
2018-09-03T13:33:47.261Z,14.50
2018-09-03T13:36:14.657Z,14.65
2018-09-03T13:38:41.989Z,13.55
2018-09-03T13:41:09.437Z,16.05
2018-09-03T13:43:37.350Z,12.95
2018-09-03T13:46:04.890Z,14.28
2018-09-03T13:48:32.283Z,12.73
2018-09-03T13:50:59.746Z,13.75
2018-09-03T13:53:27.143Z,13.05
2018-09-03T13:55:55.425Z,13.70
2018-09-03T13:58:23.705Z,18.27
2018-09-03T14:00:51.055Z,14.98
2018-09-03T14:03:19.038Z,13.80
2018-09-03T14:05:47.902Z,13.55
2018-09-03T14:08:15.674Z,13.65
2018-09-03T14:10:43.049Z,13.83
2018-09-03T14:13:10.459Z,14.05
2018-09-03T14:15:38.454Z,13.93
2018-09-03T14:18:06.900Z,15.20
2018-09-03T14:20:34.290Z,12.98
2018-09-03T14:23:01.655Z,11.63
2018-09-03T14:25:29.047Z,13.48
2018-09-03T14:27:56.426Z,13.95
2018-09-03T14:30:24.222Z,12.55
2018-09-03T14:32:51.575Z,12.35
2018-09-03T14:35:20.101Z,13.62
2018-09-03T14:37:48.103Z,13.15
2018-09-03T14:40:15.473Z,12.10
2018-09-03T14:42:43.535Z,13.05
2018-09-03T14:45:11.757Z,11.70
2018-09-03T14:47:39.394Z,12.28
2018-09-03T14:50:06.756Z,16.15
2018-09-03T14:52:34.522Z,11.50
2018-09-03T14:55:02.846Z,12.20
2018-09-03T14:57:30.627Z,13.30
2018-09-03T14:59:58.065Z,12.55
2018-09-03T15:02:26.503Z,12.55
2018-09-03T15:04:54.479Z,11.95
2018-09-03T15:07:21.881Z,12.73
2018-09-03T15:09:50.313Z,12.10
2018-09-03T15:12:17.707Z,12.10
2018-09-03T15:14:45.074Z,12.95
2018-09-03T15:17:12.751Z,12.93
2018-09-03T15:19:41.469Z,11.85
2018-09-03T15:22:08.864Z,12.33
2018-09-03T15:24:36.230Z,11.65
2018-09-03T15:27:03.649Z,14.70
2018-09-03T15:29:31.703Z,12.90
2018-09-03T15:31:59.947Z,11.83
2018-09-03T15:34:27.966Z,12.78
2018-09-03T15:36:56.534Z,13.95
2018-09-03T15:39:23.913Z,12.33
2018-09-03T15:41:51.757Z,11.40
2018-09-03T15:44:19.828Z,12.43
2018-09-03T15:46:48.122Z,11.57
2018-09-03T15:49:15.481Z,11.55
2018-09-03T15:51:43.628Z,10.93
2018-09-03T15:54:11.129Z,12.75
2018-09-03T15:56:38.375Z,13.90
2018-09-03T15:59:05.795Z,10.90
2018-09-03T16:01:34.179Z,13.85
2018-09-03T16:04:03.125Z,12.28
2018-09-03T16:06:30.539Z,13.68
2018-09-03T16:08:57.966Z,16.20
2018-09-03T16:11:25.314Z,13.25
2018-09-03T16:13:52.688Z,13.35
2018-09-03T16:16:20.182Z,12.25
2018-09-03T16:18:48.406Z,12.40
2018-09-03T16:21:16.594Z,12.80
2018-09-03T16:23:43.952Z,11.57
2018-09-03T16:26:11.326Z,12.98
2018-09-03T16:28:38.719Z,10.90
2018-09-03T16:31:06.668Z,12.80
2018-09-03T16:33:34.867Z,11.33
2018-09-03T16:36:03.207Z,11.70
2018-09-03T16:38:31.884Z,11.45
2018-09-03T16:40:59.278Z,11.70
2018-09-03T16:43:27.198Z,13.20
2018-09-03T16:45:54.599Z,11.75
2018-09-03T16:48:21.949Z,14.33
2018-09-03T16:50:49.645Z,10.90
2018-09-03T16:53:17.014Z,12.88
2018-09-03T16:55:44.396Z,11.22
2018-09-03T16:58:11.891Z,10.10
2018-09-03T17:00:39.885Z,12.10
2018-09-03T17:03:07.748Z,10.15
2018-09-03T17:05:35.165Z,9.58
2018-09-03T17:08:03.255Z,9.23
2018-09-03T17:10:30.554Z,10.15
2018-09-03T17:12:57.966Z,10.35
2018-09-03T17:15:25.952Z,10.68
2018-09-03T17:17:54.357Z,12.07
2018-09-03T17:20:21.761Z,10.10
2018-09-03T17:22:49.426Z,11.05
2018-09-03T17:25:16.795Z,9.80
2018-09-03T17:27:44.590Z,14.53
2018-09-03T17:30:12.363Z,13.40
2018-09-03T17:32:40.836Z,15.00
2018-09-03T17:35:08.911Z,10.90
2018-09-03T17:37:36.303Z,11.55
2018-09-03T17:40:03.760Z,14.65
2018-09-03T17:42:31.746Z,11.40
2018-09-03T17:44:59.787Z,18.90
2018-09-03T17:47:28.014Z,11.20
2018-09-03T17:49:55.421Z,9.88
2018-09-03T17:52:23.608Z,13.98
2018-09-03T17:54:51.004Z,15.60
2018-09-03T17:57:18.761Z,13.03
2018-09-03T17:59:46.171Z,10.20
2018-09-03T18:02:14.458Z,11.08
2018-09-03T18:04:42.505Z,10.80
2018-09-03T18:07:10.462Z,10.25
2018-09-03T18:09:37.950Z,11.00
2018-09-03T18:12:06.015Z,10.88
2018-09-03T18:14:33.467Z,11.68
2018-09-03T18:17:01.563Z,9.10
2018-09-03T18:19:29.602Z,10.48
2018-09-03T18:21:57.460Z,11.60
2018-09-03T18:24:25.911Z,10.70
2018-09-03T18:26:53.502Z,9.28
2018-09-03T18:29:21.909Z,9.40
2018-09-03T18:31:49.400Z,10.28
2018-09-03T18:34:17.399Z,9.40
2018-09-03T18:36:45.191Z,9.83
2018-09-03T18:39:14.302Z,9.50
2018-09-03T18:41:42.666Z,9.40
2018-09-03T18:44:10.515Z,8.93
2018-09-03T18:46:38.460Z,12.43
2018-09-03T18:49:06.914Z,11.53
2018-09-03T18:51:34.445Z,11.38
2018-09-03T18:54:02.459Z,10.80
2018-09-03T18:56:30.689Z,11.90
2018-09-03T18:58:58.874Z,8.60
2018-09-03T19:01:26.969Z,13.72
2018-09-03T19:03:55.105Z,11.25
2018-09-03T19:06:22.973Z,10.58
2018-09-03T19:08:51.474Z,9.35
2018-09-03T19:11:18.917Z,11.03
2018-09-03T19:13:46.775Z,9.95
2018-09-03T19:16:14.448Z,9.33
2018-09-03T19:18:43.124Z,11.80
2018-09-03T19:21:10.937Z,10.53
2018-09-03T19:23:39.046Z,9.78
2018-09-03T19:26:06.499Z,8.93
2018-09-03T19:28:34.399Z,11.22
2018-09-03T19:31:02.798Z,9.98
2018-09-03T19:33:31.236Z,11.28
2018-09-03T19:35:58.748Z,8.95
2018-09-03T19:38:27.623Z,9.08
2018-09-03T19:40:55.134Z,9.68
2018-09-03T19:43:23.308Z,13.08
2018-09-03T19:45:51.010Z,9.93
2018-09-03T19:48:18.447Z,9.28
2018-09-03T19:50:47.040Z,9.08
2018-09-03T19:53:14.525Z,9.40
2018-09-03T19:55:41.989Z,9.90
2018-09-03T19:58:10.491Z,10.35
2018-09-03T20:00:38.573Z,11.35
2018-09-03T20:03:06.519Z,11.18
2018-09-03T20:05:33.978Z,10.75
2018-09-03T20:08:01.891Z,11.88
2018-09-03T20:10:29.361Z,13.18
2018-09-03T20:12:56.806Z,11.08
2018-09-03T20:15:24.983Z,13.35
2018-09-03T20:17:53.539Z,12.13
2018-09-03T20:20:21.302Z,15.08
2018-09-03T20:22:49.355Z,11.28
2018-09-03T20:25:16.760Z,10.88
2018-09-03T20:27:44.183Z,12.80
2018-09-03T20:30:12.019Z,12.28
2018-09-03T20:32:40.030Z,14.03
2018-09-03T20:35:08.026Z,13.28
2018-09-03T20:37:36.802Z,14.80
2018-09-03T20:40:04.832Z,14.75
2018-09-03T20:42:34.000Z,14.07
2018-09-03T20:45:02.130Z,14.85
2018-09-03T20:47:29.813Z,14.73
2018-09-03T20:49:58.548Z,14.83
2018-09-03T20:52:26.561Z,14.95
2018-09-03T20:54:54.349Z,17.82
2018-09-03T20:57:22.385Z,14.87
2018-09-03T20:59:49.796Z,16.00
2018-09-03T21:02:17.857Z,15.00
2018-09-03T21:04:45.875Z,17.20
2018-09-03T21:07:13.511Z,15.83
2018-09-03T21:09:41.611Z,17.13
2018-09-03T21:12:10.401Z,16.20
2018-09-03T21:14:37.875Z,17.55
2018-09-03T21:17:06.161Z,18.42
2018-09-03T21:19:34.235Z,19.62
2018-09-03T21:22:02.430Z,18.45
2018-09-03T21:24:30.310Z,18.02
2018-09-03T21:26:57.714Z,19.02
2018-09-03T21:29:25.741Z,16.20
2018-09-03T21:31:53.185Z,18.80
2018-09-03T21:34:21.131Z,18.10
2018-09-03T21:36:50.212Z,18.85
2018-09-03T21:39:18.362Z,19.50
2018-09-03T21:41:46.746Z,21.45
2018-09-03T21:44:14.844Z,18.55
2018-09-03T21:46:43.011Z,20.17
2018-09-03T21:49:11.137Z,19.62
2018-09-03T21:51:38.585Z,21.12
2018-09-03T21:54:05.990Z,19.70
2018-09-03T21:56:34.246Z,18.55
2018-09-03T21:59:02.292Z,18.35
2018-09-03T22:01:30.605Z,20.50
2018-09-03T22:03:58.675Z,21.50
2018-09-03T22:06:26.502Z,20.87
2018-09-03T22:08:53.889Z,21.05
2018-09-03T22:11:21.280Z,22.65
2018-09-03T22:13:48.654Z,18.82
2018-09-03T22:16:16.095Z,17.87
2018-09-03T22:18:45.450Z,19.00
2018-09-03T22:21:13.457Z,20.70
2018-09-03T22:23:41.202Z,20.95
2018-09-03T22:26:08.590Z,19.40
2018-09-03T22:28:36.058Z,20.08
2018-09-03T22:31:04.050Z,19.20
2018-09-03T22:33:31.913Z,17.27
2018-09-03T22:36:00.310Z,19.35
2018-09-03T22:38:27.689Z,18.27
2018-09-03T22:40:55.374Z,19.65
2018-09-03T22:43:24.409Z,18.57
2018-09-03T22:45:52.090Z,18.98
2018-09-03T22:48:19.473Z,20.50
2018-09-03T22:50:47.723Z,23.18
2018-09-03T22:53:15.108Z,22.67
2018-09-03T22:55:43.118Z,20.37
2018-09-03T22:58:10.574Z,19.43
2018-09-03T23:00:38.016Z,20.10
2018-09-03T23:03:05.827Z,21.17
2018-09-03T23:05:33.226Z,19.87
2018-09-03T23:08:01.125Z,20.80
2018-09-03T23:10:29.204Z,22.70
2018-09-03T23:12:57.349Z,20.97
2018-09-03T23:15:24.949Z,18.23
2018-09-03T23:17:53.533Z,20.53
2018-09-03T23:20:20.940Z,21.45
2018-09-03T23:22:49.561Z,21.47
2018-09-03T23:25:17.349Z,19.67
2018-09-03T23:27:44.711Z,20.25
2018-09-03T23:30:12.382Z,18.70
2018-09-03T23:32:40.620Z,19.35
2018-09-03T23:35:08.631Z,18.10
2018-09-03T23:37:36.014Z,18.23
2018-09-03T23:40:03.430Z,19.02
2018-09-03T23:42:32.613Z,18.98
2018-09-03T23:45:00.886Z,21.17
2018-09-03T23:47:28.299Z,17.95
2018-09-03T23:49:56.224Z,20.12
2018-09-03T23:52:23.969Z,19.60
2018-09-03T23:54:51.694Z,18.67
2018-09-03T23:57:19.781Z,20.08
2018-09-03T23:59:47.154Z,18.57
